Weather at Cambridge / Reid's Field

Public forecast

Using degrees Celsius for public forecast. Weather courtesy of forecast.io.

Closest aviation weather report (METAR) to Cambridge / Reid's Field

Closest report is Region of Waterloo International Airport, 6.5 nm (12.0 km) W.

2024/05/28 15:51 (retrieved 19 minutes ago)

CYKF 281551Z AUTO 28011KT 9SM -RA OVC013 14/13 A2981 RMK SLP099 DENSITY ALT 1400FT

Closest aviation forecast (TAF) to Cambridge / Reid's Field

Closest forecast is Region of Waterloo International Airport, 6.5 nm (12.0 km) W.

2024/05/28 14:42 (retrieved 1 hour ago)

TAF TAF CYKF 281341Z 2814/2902 30012KT P6SM -SHRA OVC008 TEMPO 2814/2816 P6SM NSW SCT008 OVC020 FM281600 30012G22KT P6SM -SHRA SCT012 OVC060 TEMPO 2816/2820 5SM -SHRA BR BKN012 OVC025 FM282000 30012G22KT P6SM SCT015 OVC060 TEMPO 2820/2824 BKN015 OVC060 FM290000 30010KT P6SM BKN030 OVC060 RMK FCST BASED ON AUTO OBS NXT FCST BY 282000Z